createdAt,value
2023-05-05T00:00:27.571Z,58.13
2023-05-05T00:01:27.558Z,58.00
2023-05-05T00:02:27.692Z,57.98
2023-05-05T00:03:27.681Z,58.16
2023-05-05T00:04:27.587Z,58.29
2023-05-05T00:05:27.593Z,57.91
2023-05-05T00:06:27.606Z,57.80
2023-05-05T00:07:27.619Z,57.74
2023-05-05T00:08:27.604Z,57.76
2023-05-05T00:09:27.627Z,57.73
2023-05-05T00:10:27.631Z,57.67
2023-05-05T00:11:27.723Z,57.70
2023-05-05T00:12:27.769Z,57.71
2023-05-05T00:13:27.836Z,58.54
2023-05-05T00:14:27.888Z,58.38
2023-05-05T00:15:27.958Z,58.24
2023-05-05T00:16:28.088Z,58.15
2023-05-05T00:17:28.113Z,58.08
2023-05-05T00:18:28.191Z,58.00
2023-05-05T00:19:28.222Z,58.02
2023-05-05T00:20:28.277Z,57.98
2023-05-05T00:21:28.354Z,58.23
2023-05-05T00:22:28.403Z,58.11
2023-05-05T00:23:28.468Z,58.24
2023-05-05T00:24:28.512Z,58.15
2023-05-05T00:25:28.585Z,58.05
2023-05-05T00:26:28.645Z,58.53
2023-05-05T00:27:28.725Z,58.28
2023-05-05T00:28:28.778Z,59.12
2023-05-05T00:29:29.205Z,58.65
2023-05-05T00:30:28.889Z,58.65
2023-05-05T00:31:29.014Z,58.51
2023-05-05T00:32:29.031Z,58.52
2023-05-05T00:33:29.087Z,58.44
2023-05-05T00:34:29.141Z,58.41
2023-05-05T00:35:29.214Z,58.74
2023-05-05T00:36:29.307Z,58.42
2023-05-05T00:37:29.342Z,58.54
2023-05-05T00:38:29.403Z,58.74
2023-05-05T00:39:29.471Z,58.35
2023-05-05T00:40:29.537Z,58.60
2023-05-05T00:41:29.666Z,58.66
2023-05-05T00:42:29.640Z,58.69
2023-05-05T00:43:29.796Z,58.64
2023-05-05T00:44:29.811Z,58.48
2023-05-05T00:45:29.817Z,58.49
2023-05-05T00:46:29.943Z,58.73
2023-05-05T00:47:29.918Z,58.94
2023-05-05T00:48:29.912Z,59.00
2023-05-05T00:49:30.026Z,58.91
2023-05-05T00:50:29.981Z,59.46
2023-05-05T00:51:30.045Z,59.18
2023-05-05T00:52:30.106Z,59.15
2023-05-05T00:53:30.164Z,59.11
2023-05-05T00:54:30.232Z,59.20
2023-05-05T00:55:30.261Z,59.15
2023-05-05T00:56:30.288Z,58.94
2023-05-05T00:57:30.351Z,59.18
2023-05-05T00:58:30.424Z,59.07
2023-05-05T00:59:30.525Z,59.48
2023-05-05T01:00:30.569Z,59.15
2023-05-05T01:01:30.703Z,58.97
2023-05-05T01:02:30.975Z,58.75
2023-05-05T01:03:30.886Z,58.60
2023-05-05T01:04:30.871Z,58.45
2023-05-05T01:05:30.935Z,58.49
2023-05-05T01:06:30.884Z,58.44
2023-05-05T01:07:30.834Z,58.38
2023-05-05T01:08:30.899Z,58.37
2023-05-05T01:09:30.889Z,58.41
2023-05-05T01:10:30.924Z,58.44
2023-05-05T01:11:30.965Z,58.40
2023-05-05T01:12:31.056Z,58.35
2023-05-05T01:13:31.072Z,58.38
2023-05-05T01:14:31.086Z,58.37
2023-05-05T01:15:31.162Z,58.49
2023-05-05T01:16:31.226Z,58.37
2023-05-05T01:17:31.348Z,58.72
2023-05-05T01:18:31.313Z,58.65
2023-05-05T01:19:31.390Z,58.54
2023-05-05T01:20:31.477Z,58.64
2023-05-05T01:21:31.534Z,58.70
2023-05-05T01:22:31.719Z,59.08
2023-05-05T01:23:30.705Z,58.86
2023-05-05T01:24:31.768Z,58.68
2023-05-05T01:25:31.874Z,58.74
2023-05-05T01:26:31.897Z,58.63
2023-05-05T01:27:31.956Z,58.85
2023-05-05T01:28:32.008Z,59.21
2023-05-05T01:29:32.049Z,59.13
2023-05-05T01:30:32.084Z,59.14
2023-05-05T01:31:32.149Z,59.06
2023-05-05T01:32:32.190Z,59.20
2023-05-05T01:33:32.115Z,59.34
2023-05-05T01:34:32.142Z,59.37
2023-05-05T01:35:32.180Z,59.29
2023-05-05T01:36:32.193Z,59.32
2023-05-05T01:37:32.212Z,59.38
2023-05-05T01:38:32.227Z,59.23
2023-05-05T01:39:32.231Z,59.06
2023-05-05T01:40:32.283Z,59.16
2023-05-05T01:41:32.282Z,59.12
2023-05-05T01:42:32.339Z,59.02
2023-05-05T01:43:32.329Z,58.98
2023-05-05T01:44:32.351Z,58.93
2023-05-05T01:45:32.445Z,58.83
2023-05-05T01:46:32.403Z,58.69
2023-05-05T01:47:32.509Z,58.95
2023-05-05T01:48:32.452Z,59.10
2023-05-05T01:49:32.492Z,59.14
2023-05-05T01:50:32.539Z,59.12
2023-05-05T01:51:32.570Z,59.36
2023-05-05T01:52:32.595Z,59.16
2023-05-05T01:53:32.649Z,59.19
2023-05-05T01:54:32.662Z,59.17
2023-05-05T01:55:32.672Z,59.24
2023-05-05T01:56:32.744Z,59.15
2023-05-05T01:57:33.598Z,59.35
2023-05-05T01:58:32.781Z,59.69
2023-05-05T01:59:32.835Z,60.29
2023-05-05T02:00:32.890Z,60.06
2023-05-05T02:01:32.991Z,60.11
2023-05-05T02:02:33.003Z,60.20
2023-05-05T02:03:33.020Z,60.29
2023-05-05T02:04:33.027Z,60.23
2023-05-05T02:05:33.070Z,60.16
2023-05-05T02:06:33.086Z,60.98
2023-05-05T02:07:33.141Z,60.35
2023-05-05T02:08:33.228Z,60.20
2023-05-05T02:09:33.244Z,60.24
2023-05-05T02:10:33.317Z,60.26
2023-05-05T02:11:33.376Z,60.07
2023-05-05T02:12:33.460Z,60.67
2023-05-05T02:13:33.523Z,60.92
2023-05-05T02:14:33.562Z,60.63
2023-05-05T02:15:33.627Z,60.65
2023-05-05T02:16:33.646Z,60.50
2023-05-05T02:17:33.725Z,60.53
2023-05-05T02:18:33.713Z,60.48
2023-05-05T02:19:33.821Z,60.40
2023-05-05T02:20:33.864Z,60.32
2023-05-05T02:21:33.886Z,60.34
2023-05-05T02:22:34.008Z,60.38
2023-05-05T02:23:33.974Z,60.26
2023-05-05T02:24:34.007Z,60.25
2023-05-05T02:25:34.075Z,60.64
2023-05-05T02:26:34.098Z,60.54
2023-05-05T02:27:34.156Z,60.18
2023-05-05T02:28:34.160Z,60.02
2023-05-05T02:29:34.213Z,60.29
2023-05-05T02:30:34.246Z,60.35
2023-05-05T02:31:34.333Z,60.38
2023-05-05T02:32:34.427Z,60.46
2023-05-05T02:33:34.371Z,60.42
2023-05-05T02:34:34.416Z,60.28
2023-05-05T02:35:34.482Z,60.52
2023-05-05T02:36:34.512Z,60.43
2023-05-05T02:37:34.568Z,60.37
2023-05-05T02:38:34.611Z,60.35
2023-05-05T02:39:34.643Z,60.59
2023-05-05T02:40:34.692Z,60.21
2023-05-05T02:41:34.814Z,60.21
2023-05-05T02:42:34.817Z,60.28
2023-05-05T02:43:34.913Z,60.55
2023-05-05T02:44:34.931Z,60.61
2023-05-05T02:45:34.974Z,60.87
2023-05-05T02:46:35.116Z,60.83
2023-05-05T02:47:35.153Z,60.80
2023-05-05T02:48:35.134Z,60.73
2023-05-05T02:49:35.190Z,60.78
2023-05-05T02:50:35.250Z,60.82
2023-05-05T02:51:35.350Z,60.91
2023-05-05T02:52:35.363Z,61.45
2023-05-05T02:53:35.374Z,61.15
2023-05-05T02:54:35.427Z,61.02
2023-05-05T02:55:35.491Z,60.89
2023-05-05T02:56:35.546Z,60.78
2023-05-05T02:57:35.598Z,60.74
2023-05-05T02:58:35.654Z,60.71
2023-05-05T02:59:35.708Z,60.78
2023-05-05T03:00:35.773Z,60.82
2023-05-05T03:01:35.861Z,60.76
2023-05-05T03:02:35.954Z,60.74
2023-05-05T03:03:36.075Z,60.60
2023-05-05T03:04:35.990Z,60.49
2023-05-05T03:05:36.046Z,60.35
2023-05-05T03:06:36.124Z,60.30
2023-05-05T03:07:36.181Z,60.21
2023-05-05T03:08:36.209Z,60.34
2023-05-05T03:09:36.260Z,60.21
2023-05-05T03:10:36.321Z,60.18
2023-05-05T03:11:36.382Z,60.36
2023-05-05T03:12:36.468Z,60.47
2023-05-05T03:13:36.470Z,60.34
2023-05-05T03:14:36.536Z,60.32
2023-05-05T03:15:36.572Z,60.39
2023-05-05T03:16:36.734Z,60.50
2023-05-05T03:17:36.764Z,60.47
2023-05-05T03:18:36.759Z,61.03
2023-05-05T03:19:36.823Z,60.78
2023-05-05T03:20:36.893Z,60.76
2023-05-05T03:21:36.965Z,60.77
2023-05-05T03:22:37.029Z,61.20
2023-05-05T03:23:37.114Z,60.98
2023-05-05T03:24:37.167Z,60.97
2023-05-05T03:25:37.254Z,60.99
2023-05-05T03:26:37.338Z,61.62
2023-05-05T03:27:37.422Z,61.22
2023-05-05T03:28:37.489Z,61.42
2023-05-05T03:29:37.576Z,61.03
2023-05-05T03:30:37.655Z,60.88
2023-05-05T03:31:37.793Z,60.98
2023-05-05T03:32:37.838Z,60.97
2023-05-05T03:33:37.864Z,60.91
2023-05-05T03:34:38.018Z,61.47
2023-05-05T03:35:37.989Z,61.18
2023-05-05T03:36:38.058Z,60.74
2023-05-05T03:37:38.124Z,60.91
2023-05-05T03:38:38.184Z,60.66
2023-05-05T03:39:38.268Z,60.34
2023-05-05T03:40:44.043Z,60.13
2023-05-05T03:41:38.305Z,60.06
2023-05-05T03:42:38.313Z,60.09
2023-05-05T03:43:38.349Z,60.03
2023-05-05T03:44:38.343Z,59.90
2023-05-05T03:45:38.429Z,59.82
2023-05-05T03:46:38.389Z,59.74
2023-05-05T03:47:38.417Z,59.71
2023-05-05T03:48:38.424Z,59.94
2023-05-05T03:49:38.445Z,59.89
2023-05-05T03:50:38.576Z,59.93
2023-05-05T03:51:38.492Z,59.94
2023-05-05T03:52:38.542Z,59.92
2023-05-05T03:53:38.544Z,60.01
2023-05-05T03:54:38.552Z,60.04
2023-05-05T03:55:38.605Z,60.08
2023-05-05T03:56:38.595Z,60.00
2023-05-05T03:57:38.630Z,60.02
2023-05-05T03:58:38.644Z,60.08
2023-05-05T03:59:38.668Z,60.12
2023-05-05T04:00:38.684Z,60.23
2023-05-05T04:01:38.719Z,60.26
2023-05-05T04:02:39.513Z,60.24
2023-05-05T04:03:38.809Z,60.05
2023-05-05T04:04:38.781Z,60.03
2023-05-05T04:05:38.791Z,59.89
2023-05-05T04:06:38.827Z,59.89
2023-05-05T04:07:38.854Z,59.84
2023-05-05T04:08:38.871Z,59.73
2023-05-05T04:09:38.887Z,59.66
2023-05-05T04:10:38.915Z,59.70
2023-05-05T04:11:39.851Z,59.78
2023-05-05T04:12:39.033Z,59.79
2023-05-05T04:13:38.975Z,59.84
2023-05-05T04:14:38.990Z,60.50
2023-05-05T04:15:39.047Z,60.58
2023-05-05T04:16:39.030Z,60.55
2023-05-05T04:17:39.079Z,60.61
2023-05-05T04:18:39.055Z,60.68
2023-05-05T04:19:39.096Z,60.53
2023-05-05T04:20:39.093Z,60.18
2023-05-05T04:21:39.114Z,59.95
2023-05-05T04:22:39.171Z,59.73
2023-05-05T04:23:39.148Z,59.29
2023-05-05T04:24:39.207Z,59.16
2023-05-05T04:25:39.261Z,59.11
2023-05-05T04:26:39.292Z,59.24
2023-05-05T04:27:39.341Z,59.82
2023-05-05T04:28:39.339Z,60.18
2023-05-05T04:29:39.370Z,60.01
2023-05-05T04:30:39.433Z,60.22
2023-05-05T04:31:39.554Z,60.14
2023-05-05T04:32:39.549Z,59.67
2023-05-05T04:33:39.524Z,59.77
2023-05-05T04:34:39.548Z,59.63
2023-05-05T04:35:39.563Z,59.56
2023-05-05T04:36:39.602Z,59.44
2023-05-05T04:37:39.644Z,59.23
2023-05-05T04:38:39.706Z,59.48
2023-05-05T04:39:39.735Z,59.44
2023-05-05T04:40:39.794Z,59.30
2023-05-05T04:41:39.865Z,59.26
2023-05-05T04:42:39.937Z,59.13
2023-05-05T04:43:40.022Z,59.00
2023-05-05T04:44:40.067Z,58.68
2023-05-05T04:45:40.097Z,58.34
2023-05-05T04:46:40.146Z,57.39
2023-05-05T04:47:40.233Z,56.94
2023-05-05T04:48:40.225Z,56.25
2023-05-05T04:49:40.269Z,55.56
2023-05-05T04:50:40.288Z,55.67
2023-05-05T04:51:40.308Z,55.62
2023-05-05T04:52:40.334Z,56.07
2023-05-05T04:53:40.342Z,56.40
2023-05-05T04:54:40.351Z,55.76
2023-05-05T04:55:40.371Z,55.74
2023-05-05T04:56:40.370Z,55.48
2023-05-05T04:57:40.400Z,55.09
2023-05-05T04:58:40.404Z,54.71
2023-05-05T04:59:40.447Z,54.69
2023-05-05T05:00:40.424Z,54.48
2023-05-05T05:01:40.443Z,53.97
2023-05-05T05:02:40.562Z,53.63
2023-05-05T05:03:40.585Z,53.63
2023-05-05T05:04:40.512Z,53.57
2023-05-05T05:05:40.570Z,53.39
2023-05-05T05:06:40.640Z,52.80
2023-05-05T05:07:40.710Z,52.75
2023-05-05T05:08:40.716Z,54.23
2023-05-05T05:09:40.762Z,54.36
2023-05-05T05:10:40.813Z,54.32
2023-05-05T05:11:40.871Z,53.95
2023-05-05T05:12:41.387Z,53.92
2023-05-05T05:13:40.960Z,53.74
2023-05-05T05:14:40.993Z,53.29
2023-05-05T05:15:41.801Z,53.21
2023-05-05T05:16:41.128Z,52.60
2023-05-05T05:17:41.158Z,52.37
2023-05-05T05:18:41.149Z,52.20
2023-05-05T05:19:41.164Z,52.48
2023-05-05T05:20:41.200Z,52.66
2023-05-05T05:21:41.353Z,53.03
2023-05-05T05:22:41.280Z,53.29
2023-05-05T05:23:41.299Z,53.28
2023-05-05T05:24:41.346Z,52.75
2023-05-05T05:25:41.456Z,53.19
2023-05-05T05:26:41.421Z,52.62
2023-05-05T05:27:41.872Z,52.95
2023-05-05T05:28:41.859Z,52.74
2023-05-05T05:29:41.521Z,52.88
2023-05-05T05:30:41.554Z,52.88
2023-05-05T05:31:41.951Z,52.80
2023-05-05T05:32:41.688Z,52.65
2023-05-05T05:33:41.681Z,52.08
2023-05-05T05:34:41.701Z,52.15
2023-05-05T05:35:41.760Z,52.40
2023-05-05T05:36:41.869Z,52.79
2023-05-05T05:37:41.824Z,52.65
2023-05-05T05:38:41.832Z,52.72
2023-05-05T05:39:43.545Z,53.06
2023-05-05T05:40:41.860Z,53.78
2023-05-05T05:41:41.912Z,53.56
2023-05-05T05:42:41.860Z,53.53
2023-05-05T05:43:41.807Z,53.47
2023-05-05T05:44:41.758Z,53.51
2023-05-05T05:45:41.794Z,53.32
2023-05-05T05:46:41.888Z,53.23
2023-05-05T05:47:41.782Z,52.96
2023-05-05T05:48:41.662Z,53.06
2023-05-05T05:49:41.631Z,52.95
2023-05-05T05:50:42.328Z,53.19
2023-05-05T05:51:57.465Z,52.50
2023-05-05T05:52:41.884Z,52.49
2023-05-05T05:53:41.516Z,52.63
2023-05-05T05:54:41.492Z,52.31
2023-05-05T05:56:42.237Z,52.15
2023-05-05T05:57:44.608Z,51.72
2023-05-05T05:58:41.383Z,51.98
2023-05-05T05:59:41.375Z,51.48
2023-05-05T06:00:56.993Z,51.22
2023-05-05T06:02:41.342Z,50.80
2023-05-05T06:04:56.858Z,50.11
2023-05-05T06:05:48.590Z,50.49
2023-05-05T06:06:41.881Z,50.49
2023-05-05T06:07:41.125Z,49.83
2023-05-05T06:08:41.362Z,50.00
2023-05-05T06:09:42.041Z,49.81
2023-05-05T06:10:41.018Z,49.69
2023-05-05T06:11:41.876Z,49.39
2023-05-05T06:12:42.040Z,48.97
2023-05-05T06:15:48.341Z,48.11
2023-05-05T06:16:40.992Z,47.97
2023-05-05T06:17:40.836Z,48.08
2023-05-05T06:18:40.758Z,48.24
2023-05-05T06:19:40.803Z,50.95
2023-05-05T06:20:40.788Z,51.88
2023-05-05T06:21:41.181Z,53.38
2023-05-05T06:22:41.652Z,53.04
2023-05-05T06:23:41.877Z,52.39
2023-05-05T06:24:40.666Z,51.55
2023-05-05T06:25:40.695Z,50.89
2023-05-05T06:26:40.725Z,50.21
2023-05-05T06:27:41.086Z,51.06
2023-05-05T06:28:40.682Z,52.08
2023-05-05T06:29:40.587Z,51.79
2023-05-05T06:30:40.549Z,52.56
2023-05-05T06:31:40.659Z,52.53
2023-05-05T06:32:40.627Z,51.72
2023-05-05T06:33:40.599Z,51.24
2023-05-05T06:34:40.507Z,50.71
2023-05-05T06:35:40.461Z,50.09
2023-05-05T06:36:40.514Z,49.31
2023-05-05T06:37:40.407Z,49.45
2023-05-05T06:38:40.943Z,49.01
2023-05-05T06:39:41.369Z,48.79
2023-05-05T06:40:40.355Z,48.41
2023-05-05T06:41:40.372Z,48.06
2023-05-05T06:42:40.412Z,47.68
2023-05-05T06:43:41.341Z,47.63
2023-05-05T06:44:40.546Z,47.43
2023-05-05T06:45:41.951Z,47.24
2023-05-05T06:46:40.464Z,47.21
2023-05-05T06:47:40.442Z,47.19
2023-05-05T06:48:40.857Z,47.46
2023-05-05T06:49:40.329Z,47.48
2023-05-05T06:50:40.269Z,47.22
2023-05-05T06:51:42.695Z,47.36
2023-05-05T06:52:40.406Z,47.64
2023-05-05T12:17:52.790Z,28.19
2023-05-05T12:18:53.504Z,27.53
2023-05-05T12:19:53.486Z,28.99
2023-05-05T12:20:53.463Z,29.35
2023-05-05T12:21:53.462Z,29.16
2023-05-05T12:22:53.480Z,30.68
2023-05-05T12:23:53.495Z,31.73
2023-05-05T12:24:54.944Z,33.57
2023-05-05T12:25:53.683Z,32.15
2023-05-05T12:26:53.714Z,33.02
2023-05-05T12:27:53.767Z,30.79
2023-05-05T12:28:53.841Z,28.92
2023-05-05T12:29:53.872Z,28.51
2023-05-05T12:30:55.060Z,28.75
2023-05-05T12:31:53.925Z,30.72
2023-05-05T12:32:53.950Z,29.44
2023-05-05T12:33:54.016Z,30.80
2023-05-05T12:34:53.970Z,30.61
2023-05-05T12:35:53.988Z,29.80
2023-05-05T12:36:54.023Z,30.97
2023-05-05T12:37:54.048Z,31.66
2023-05-05T12:38:54.090Z,29.58
2023-05-05T12:39:54.205Z,29.50
2023-05-05T12:40:54.186Z,29.51
2023-05-05T12:41:54.272Z,31.32
2023-05-05T12:42:54.295Z,29.45
2023-05-05T12:43:54.418Z,30.92
2023-05-05T12:44:54.389Z,28.16
2023-05-05T12:45:54.487Z,28.74
2023-05-05T12:46:56.027Z,27.92
2023-05-05T12:47:54.681Z,28.67
2023-05-05T12:48:54.684Z,31.43
2023-05-05T12:49:54.819Z,30.29
2023-05-05T12:50:54.803Z,28.60
2023-05-05T12:51:54.837Z,29.68
2023-05-05T12:52:54.894Z,28.92
2023-05-05T12:53:54.958Z,30.40
2023-05-05T12:54:55.491Z,29.78
2023-05-05T12:55:55.052Z,28.84
2023-05-05T12:56:55.104Z,30.08
2023-05-05T12:57:55.103Z,28.65
2023-05-05T12:58:55.143Z,27.27
2023-05-05T12:59:55.496Z,27.34
2023-05-05T13:00:55.333Z,30.38
2023-05-05T13:01:55.553Z,29.94
2023-05-05T13:02:55.468Z,31.70
2023-05-05T13:03:55.489Z,30.80
2023-05-05T13:04:55.504Z,29.96
2023-05-05T13:05:55.631Z,32.01
2023-05-05T13:06:55.572Z,30.74
2023-05-05T13:07:55.596Z,28.54
2023-05-05T13:08:55.661Z,28.31
2023-05-05T13:09:56.033Z,28.56
2023-05-05T13:10:55.747Z,27.08
2023-05-05T13:11:55.815Z,27.76
2023-05-05T13:12:56.062Z,28.74
2023-05-05T13:13:55.907Z,28.62
2023-05-05T13:14:55.958Z,29.42
2023-05-05T13:15:56.033Z,28.77
2023-05-05T13:16:56.075Z,30.35
2023-05-05T13:17:56.220Z,31.55
2023-05-05T13:18:56.220Z,31.11
2023-05-05T13:19:56.303Z,28.79
2023-05-05T13:20:56.348Z,31.40
2023-05-05T13:21:56.474Z,31.44
2023-05-05T13:22:56.487Z,29.63
2023-05-05T13:24:05.124Z,29.35
2023-05-05T13:24:56.602Z,29.86
2023-05-05T13:25:56.997Z,30.12
2023-05-05T13:26:56.681Z,30.90
2023-05-05T13:27:56.722Z,32.97
2023-05-05T13:28:56.750Z,33.79
2023-05-05T13:29:56.786Z,31.10
2023-05-05T13:30:56.829Z,31.38
2023-05-05T13:31:56.869Z,33.06
2023-05-05T13:32:56.852Z,32.24
2023-05-05T13:33:56.875Z,31.13
2023-05-05T13:34:56.907Z,29.22
2023-05-05T13:35:56.917Z,28.13
2023-05-05T13:36:56.988Z,28.60
2023-05-05T13:37:57.066Z,28.35
2023-05-05T13:38:57.005Z,31.78
2023-05-05T13:39:57.032Z,31.61
2023-05-05T13:40:57.081Z,29.89
2023-05-05T13:41:57.101Z,30.18
2023-05-05T13:42:57.172Z,30.60
2023-05-05T13:43:57.228Z,31.23
2023-05-05T13:44:57.262Z,28.88
2023-05-05T13:46:05.542Z,28.19
2023-05-05T13:46:57.383Z,28.39
2023-05-05T13:47:57.378Z,28.90
2023-05-05T13:48:57.512Z,29.36
2023-05-05T13:49:57.378Z,27.76
2023-05-05T13:50:57.385Z,27.46
2023-05-05T13:51:57.406Z,28.55
2023-05-05T13:52:57.408Z,27.68
2023-05-05T13:53:57.573Z,28.15
2023-05-05T13:54:57.460Z,27.49
2023-05-05T13:55:57.492Z,27.61
2023-05-05T13:56:57.507Z,27.93
2023-05-05T13:57:57.515Z,27.78
2023-05-05T13:58:57.540Z,27.28
2023-05-05T13:59:57.593Z,27.96
2023-05-05T14:00:58.218Z,28.34
2023-05-05T14:01:57.594Z,28.54
2023-05-05T14:02:57.625Z,28.79
2023-05-05T14:03:58.000Z,28.97
2023-05-05T14:04:57.634Z,28.53
2023-05-05T14:05:58.060Z,29.29
2023-05-05T14:06:57.649Z,29.37
2023-05-05T14:07:57.662Z,27.37
2023-05-05T14:08:58.017Z,27.66
2023-05-05T14:09:57.804Z,26.87
2023-05-05T14:10:58.019Z,28.67
2023-05-05T14:11:57.727Z,28.59
2023-05-05T14:12:57.793Z,26.43
2023-05-05T14:13:57.772Z,25.78
2023-05-05T14:14:57.778Z,27.67
2023-05-05T14:15:57.838Z,28.22
2023-05-05T14:16:57.882Z,27.71
2023-05-05T14:17:57.882Z,27.39
2023-05-05T14:18:57.853Z,27.26
2023-05-05T14:19:57.884Z,26.90
2023-05-05T14:20:57.921Z,27.37
2023-05-05T14:21:57.928Z,27.13
2023-05-05T14:22:57.946Z,27.56
2023-05-05T14:23:58.005Z,28.92
2023-05-05T14:24:58.016Z,28.51
2023-05-05T14:25:58.196Z,28.75
2023-05-05T14:26:58.059Z,28.52
2023-05-05T14:27:58.125Z,28.33
2023-05-05T14:28:58.175Z,27.48
2023-05-05T14:29:58.234Z,27.09
2023-05-05T14:30:58.295Z,27.03
2023-05-05T14:31:58.334Z,27.21
2023-05-05T14:32:58.377Z,26.80
2023-05-05T14:33:58.526Z,27.06
2023-05-05T14:34:58.460Z,27.58
2023-05-05T14:35:58.531Z,27.32
2023-05-05T14:36:58.644Z,27.78
2023-05-05T14:37:58.641Z,26.94
2023-05-05T14:38:59.043Z,26.55
2023-05-05T14:39:58.771Z,26.65
2023-05-05T14:40:58.889Z,27.92
2023-05-05T14:41:58.972Z,29.11
2023-05-05T14:42:58.936Z,28.17
2023-05-05T14:43:59.538Z,28.87
2023-05-05T14:44:59.041Z,28.26
2023-05-05T14:45:59.155Z,28.03
2023-05-05T14:46:59.529Z,27.42
2023-05-05T14:47:59.341Z,28.05
2023-05-05T14:48:59.306Z,28.47
2023-05-05T14:49:59.340Z,28.51
2023-05-05T14:50:59.436Z,29.05
2023-05-05T14:51:59.387Z,28.56
2023-05-05T14:52:59.451Z,28.79
2023-05-05T14:53:59.507Z,29.29
2023-05-05T14:54:59.575Z,28.53
2023-05-05T14:55:59.657Z,27.66
2023-05-05T14:56:59.762Z,29.38
2023-05-05T14:57:59.932Z,29.66
2023-05-05T14:58:59.914Z,28.62
2023-05-05T15:00:00.009Z,28.72
2023-05-05T15:01:00.071Z,29.42
2023-05-05T15:02:00.268Z,29.96
2023-05-05T15:03:00.268Z,29.32
2023-05-05T15:04:00.339Z,30.35
2023-05-05T15:05:00.300Z,30.61
2023-05-05T15:06:00.349Z,31.27
2023-05-05T15:07:00.396Z,30.78
2023-05-05T15:08:00.454Z,30.21
2023-05-05T15:09:00.563Z,29.94
2023-05-05T15:10:00.608Z,30.17
2023-05-05T15:11:00.668Z,30.06
2023-05-05T15:12:00.723Z,30.18
2023-05-05T15:13:00.853Z,32.24
2023-05-05T15:14:00.894Z,32.36
2023-05-05T15:15:00.908Z,31.41
2023-05-05T15:16:01.054Z,31.37
2023-05-05T15:17:01.096Z,31.85
2023-05-05T15:18:01.248Z,31.76
2023-05-05T15:19:01.223Z,31.06
2023-05-05T15:20:01.309Z,31.21
2023-05-05T15:21:01.360Z,31.36
2023-05-05T15:22:01.460Z,31.20
2023-05-05T15:23:01.527Z,31.60
2023-05-05T15:24:01.596Z,31.43
2023-05-05T15:25:01.657Z,31.73
2023-05-05T15:26:01.750Z,31.80
2023-05-05T15:27:01.810Z,31.39
2023-05-05T15:28:01.877Z,32.41
2023-05-05T15:29:01.928Z,31.60
2023-05-05T15:30:02.053Z,31.51
2023-05-05T15:31:02.050Z,32.45
2023-05-05T15:32:02.147Z,31.53
2023-05-05T15:33:02.298Z,32.51
2023-05-05T15:34:02.308Z,32.34
2023-05-05T15:35:02.399Z,32.12
2023-05-05T15:36:02.452Z,33.20
2023-05-05T15:37:02.563Z,32.72
2023-05-05T15:38:02.643Z,32.05
2023-05-05T15:39:02.767Z,32.22
2023-05-05T15:40:02.985Z,33.60
2023-05-05T15:41:02.981Z,33.30
2023-05-05T15:42:03.062Z,32.86
2023-05-05T15:43:03.147Z,31.65
2023-05-05T15:44:03.192Z,33.35
2023-05-05T15:45:03.290Z,34.32
2023-05-05T15:46:03.377Z,33.65
2023-05-05T15:47:03.451Z,32.79
2023-05-05T15:48:03.521Z,32.53
2023-05-05T15:49:03.543Z,32.39
2023-05-05T15:50:03.628Z,32.20
2023-05-05T15:51:03.695Z,32.17
2023-05-05T15:52:03.748Z,32.48
2023-05-05T15:53:03.814Z,32.40
2023-05-05T15:54:03.950Z,32.72
2023-05-05T15:55:04.039Z,32.59
2023-05-05T15:56:04.101Z,32.54
2023-05-05T15:57:04.176Z,32.30
2023-05-05T15:58:04.264Z,33.19
2023-05-05T15:59:04.382Z,33.03
2023-05-05T16:00:04.432Z,34.03
2023-05-05T16:01:04.549Z,33.40
2023-05-05T16:02:04.713Z,32.96
2023-05-05T16:03:04.754Z,33.82
2023-05-05T16:04:04.736Z,33.66
2023-05-05T16:05:04.884Z,34.50
2023-05-05T16:06:04.823Z,33.67
2023-05-05T16:07:04.877Z,33.53
2023-05-05T16:08:04.939Z,34.07
2023-05-05T16:09:04.988Z,34.26
2023-05-05T16:10:05.027Z,34.90
2023-05-05T16:11:05.098Z,33.52
2023-05-05T16:12:05.190Z,34.10
2023-05-05T16:13:05.294Z,33.88
2023-05-05T16:14:05.377Z,34.19
2023-05-05T16:15:05.513Z,34.77
2023-05-05T16:16:05.571Z,35.30
2023-05-05T16:17:05.692Z,35.42
2023-05-05T16:18:05.926Z,34.99
2023-05-05T16:19:05.871Z,35.79
2023-05-05T16:20:06.001Z,35.64
2023-05-05T16:21:06.072Z,35.55
2023-05-05T16:22:06.153Z,35.61
2023-05-05T16:23:06.253Z,36.05
2023-05-05T16:24:06.326Z,35.40
2023-05-05T16:25:06.552Z,35.47
2023-05-05T16:26:06.480Z,35.32
2023-05-05T16:27:06.551Z,36.29
2023-05-05T16:28:06.645Z,35.19
2023-05-05T16:29:06.710Z,35.68
2023-05-05T16:30:06.839Z,35.35
2023-05-05T16:31:06.955Z,35.71
2023-05-05T16:32:07.058Z,35.67
2023-05-05T16:33:07.172Z,36.24
2023-05-05T16:34:07.309Z,35.90
2023-05-05T16:35:07.559Z,35.99
2023-05-05T16:36:07.321Z,35.81
2023-05-05T16:37:07.402Z,36.02
2023-05-05T16:38:07.471Z,36.06
2023-05-05T16:39:07.571Z,36.45
2023-05-05T16:40:08.528Z,36.58
2023-05-05T16:41:07.754Z,36.61
2023-05-05T16:42:07.803Z,36.28
2023-05-05T16:43:07.917Z,37.00
2023-05-05T16:44:07.987Z,36.67
2023-05-05T16:45:09.042Z,36.63
2023-05-05T16:46:08.129Z,36.81
2023-05-05T16:47:08.177Z,37.80
2023-05-05T16:48:09.237Z,37.68
2023-05-05T16:49:08.864Z,36.80
2023-05-05T16:50:08.654Z,37.36
2023-05-05T16:51:08.632Z,36.91
2023-05-05T16:52:08.724Z,37.07
2023-05-05T16:53:08.845Z,37.35
2023-05-05T16:54:08.969Z,38.43
2023-05-05T16:55:09.281Z,38.28
2023-05-05T16:56:09.211Z,38.39
2023-05-05T16:57:09.317Z,38.97
2023-05-05T16:58:09.440Z,38.32
2023-05-05T16:59:09.589Z,39.07
2023-05-05T17:00:09.620Z,38.97
2023-05-05T17:01:09.765Z,39.13
2023-05-05T17:02:09.862Z,38.68
2023-05-05T17:03:09.848Z,39.39
2023-05-05T17:04:09.943Z,38.98
2023-05-05T17:05:10.328Z,39.73
2023-05-05T17:06:10.188Z,39.99
2023-05-05T17:07:10.196Z,39.94
2023-05-05T17:08:10.304Z,39.62
2023-05-05T17:09:10.422Z,40.04
2023-05-05T17:10:10.548Z,39.95
2023-05-05T17:11:11.640Z,39.45
2023-05-05T17:12:10.806Z,40.03
2023-05-05T17:13:10.947Z,40.46
2023-05-05T17:14:11.005Z,40.19
2023-05-05T17:15:11.168Z,40.20
2023-05-05T17:16:11.188Z,40.41
2023-05-05T17:17:11.297Z,40.17
2023-05-05T17:18:11.464Z,40.40
2023-05-05T17:19:11.530Z,39.81
2023-05-05T17:20:11.665Z,39.92
2023-05-05T17:21:11.762Z,40.01
2023-05-05T17:22:11.976Z,40.63
2023-05-05T17:23:11.945Z,40.28
2023-05-05T17:24:12.066Z,40.63
2023-05-05T17:25:12.327Z,40.69
2023-05-05T17:26:12.278Z,40.99
2023-05-05T17:28:30.616Z,40.98
2023-05-05T17:29:31.603Z,40.99
2023-05-05T17:30:31.591Z,40.82
2023-05-05T17:31:31.598Z,40.81
2023-05-05T17:32:31.592Z,41.16
2023-05-05T17:33:31.578Z,41.42
2023-05-05T17:34:31.577Z,41.31
2023-05-05T17:35:31.581Z,41.32
2023-05-05T17:36:31.557Z,41.40
2023-05-05T17:37:31.631Z,41.49
2023-05-05T17:38:31.522Z,41.62
2023-05-05T17:39:31.509Z,41.91
2023-05-05T17:40:31.751Z,41.98
2023-05-05T17:41:32.300Z,41.40
2023-05-05T17:42:32.163Z,41.76
2023-05-05T17:43:31.736Z,42.13
2023-05-05T17:44:32.150Z,42.08
2023-05-05T17:45:31.912Z,41.69
2023-05-05T17:46:31.934Z,41.64
2023-05-05T17:47:31.869Z,41.65
2023-05-05T17:48:31.499Z,41.85
2023-05-05T17:49:31.462Z,41.80
2023-05-05T17:50:31.487Z,41.70
2023-05-05T17:51:31.471Z,41.85
2023-05-05T17:52:31.489Z,42.11
2023-05-05T17:53:31.628Z,42.15
2023-05-05T17:54:31.472Z,41.98
2023-05-05T17:55:31.483Z,42.09
2023-05-05T17:56:31.469Z,41.99
2023-05-05T17:57:31.476Z,42.13
2023-05-05T17:58:31.464Z,42.13
2023-05-05T17:59:31.469Z,42.05
2023-05-05T18:00:31.467Z,42.35
2023-05-05T18:01:31.529Z,42.08
2023-05-05T18:02:31.529Z,41.97
2023-05-05T18:03:31.800Z,42.24
2023-05-05T18:04:31.576Z,42.86
2023-05-05T18:05:31.643Z,42.83
2023-05-05T18:06:31.684Z,42.72
2023-05-05T18:07:31.727Z,42.37
2023-05-05T18:08:31.762Z,42.07
2023-05-05T18:09:31.919Z,42.36
2023-05-05T18:10:31.781Z,42.33
2023-05-05T18:11:31.789Z,42.48
2023-05-05T18:12:31.841Z,42.29
2023-05-05T18:13:31.812Z,42.19
2023-05-05T18:14:31.829Z,41.88
2023-05-05T18:15:31.914Z,41.81
2023-05-05T18:16:31.885Z,41.99
2023-05-05T18:17:31.926Z,41.98
2023-05-05T18:18:32.025Z,42.34
2023-05-05T18:19:32.067Z,41.93
2023-05-05T18:20:32.085Z,41.45
2023-05-05T18:21:32.114Z,41.90
2023-05-05T18:22:32.129Z,42.07
2023-05-05T18:23:32.139Z,41.92